sensor_id;sensor_type;location;lat;lon;timestamp;P1;durP1;ratioP1;P2;durP2;ratioP2
7783;SDS011;19359;51.402;6.778;2023-02-01T00:01:45;16.25;;;4.93;;
7783;SDS011;19359;51.402;6.778;2023-02-01T00:04:12;13.65;;;4.65;;
7783;SDS011;19359;51.402;6.778;2023-02-01T00:06:39;8.27;;;3.60;;
7783;SDS011;19359;51.402;6.778;2023-02-01T00:09:06;18.35;;;3.40;;
7783;SDS011;19359;51.402;6.778;2023-02-01T00:11:33;16.90;;;3.42;;
7783;SDS011;19359;51.402;6.778;2023-02-01T00:14:01;13.95;;;4.00;;
7783;SDS011;19359;51.402;6.778;2023-02-01T00:16:29;18.80;;;4.50;;
7783;SDS011;19359;51.402;6.778;2023-02-01T00:18:58;8.57;;;3.75;;
7783;SDS011;19359;51.402;6.778;2023-02-01T00:21:26;12.18;;;3.42;;
7783;SDS011;19359;51.402;6.778;2023-02-01T00:23:53;14.23;;;3.80;;
7783;SDS011;19359;51.402;6.778;2023-02-01T00:26:20;11.35;;;3.20;;
7783;SDS011;19359;51.402;6.778;2023-02-01T00:28:52;5.80;;;2.92;;
7783;SDS011;19359;51.402;6.778;2023-02-01T00:31:20;10.70;;;3.45;;
7783;SDS011;19359;51.402;6.778;2023-02-01T00:33:47;16.95;;;4.55;;
7783;SDS011;19359;51.402;6.778;2023-02-01T00:36:14;13.27;;;3.55;;
7783;SDS011;19359;51.402;6.778;2023-02-01T00:38:41;10.32;;;4.10;;
7783;SDS011;19359;51.402;6.778;2023-02-01T00:41:10;10.80;;;3.88;;
7783;SDS011;19359;51.402;6.778;2023-02-01T00:43:38;12.23;;;5.28;;
7783;SDS011;19359;51.402;6.778;2023-02-01T00:46:05;15.55;;;4.35;;
7783;SDS011;19359;51.402;6.778;2023-02-01T00:48:33;24.60;;;6.28;;
7783;SDS011;19359;51.402;6.778;2023-02-01T00:51:00;10.60;;;4.45;;
7783;SDS011;19359;51.402;6.778;2023-02-01T00:53:27;16.70;;;4.93;;
7783;SDS011;19359;51.402;6.778;2023-02-01T00:55:54;17.88;;;6.30;;
7783;SDS011;19359;51.402;6.778;2023-02-01T00:58:22;13.48;;;5.60;;
7783;SDS011;19359;51.402;6.778;2023-02-01T01:00:54;14.10;;;5.05;;
7783;SDS011;19359;51.402;6.778;2023-02-01T01:03:27;16.80;;;5.82;;
7783;SDS011;19359;51.402;6.778;2023-02-01T01:05:59;13.45;;;6.03;;
7783;SDS011;19359;51.402;6.778;2023-02-01T01:08:27;17.08;;;6.43;;
7783;SDS011;19359;51.402;6.778;2023-02-01T01:10:54;18.13;;;6.22;;
7783;SDS011;19359;51.402;6.778;2023-02-01T01:13:21;16.52;;;7.25;;
7783;SDS011;19359;51.402;6.778;2023-02-01T01:15:48;14.32;;;5.70;;
7783;SDS011;19359;51.402;6.778;2023-02-01T01:18:14;16.83;;;6.90;;
7783;SDS011;19359;51.402;6.778;2023-02-01T01:20:41;17.10;;;6.45;;
7783;SDS011;19359;51.402;6.778;2023-02-01T01:23:09;19.80;;;7.30;;
7783;SDS011;19359;51.402;6.778;2023-02-01T01:25:37;10.18;;;5.07;;
7783;SDS011;19359;51.402;6.778;2023-02-01T01:28:04;16.67;;;6.30;;
7783;SDS011;19359;51.402;6.778;2023-02-01T01:30:30;16.25;;;6.00;;
7783;SDS011;19359;51.402;6.778;2023-02-01T01:32:57;11.80;;;4.82;;
7783;SDS011;19359;51.402;6.778;2023-02-01T01:35:24;11.38;;;4.63;;
7783;SDS011;19359;51.402;6.778;2023-02-01T01:37:51;15.55;;;4.53;;
7783;SDS011;19359;51.402;6.778;2023-02-01T01:40:19;9.50;;;4.80;;
7783;SDS011;19359;51.402;6.778;2023-02-01T01:42:46;25.23;;;5.10;;
7783;SDS011;19359;51.402;6.778;2023-02-01T01:45:19;13.75;;;4.90;;
7783;SDS011;19359;51.402;6.778;2023-02-01T01:47:51;17.27;;;5.28;;
7783;SDS011;19359;51.402;6.778;2023-02-01T01:50:21;12.05;;;3.80;;
7783;SDS011;19359;51.402;6.778;2023-02-01T01:52:51;13.98;;;4.40;;
7783;SDS011;19359;51.402;6.778;2023-02-01T01:55:22;11.35;;;3.42;;
7783;SDS011;19359;51.402;6.778;2023-02-01T01:57:54;11.80;;;4.00;;
7783;SDS011;19359;51.402;6.778;2023-02-01T02:00:23;6.63;;;3.42;;
7783;SDS011;19359;51.402;6.778;2023-02-01T02:02:52;8.52;;;4.00;;
7783;SDS011;19359;51.402;6.778;2023-02-01T02:05:21;7.80;;;2.55;;
7783;SDS011;19359;51.402;6.778;2023-02-01T02:07:49;15.68;;;3.15;;
7783;SDS011;19359;51.402;6.778;2023-02-01T02:10:19;20.70;;;3.05;;
7783;SDS011;19359;51.402;6.778;2023-02-01T02:13:07;10.82;;;2.80;;
7783;SDS011;19359;51.402;6.778;2023-02-01T02:15:34;13.50;;;3.83;;
7783;SDS011;19359;51.402;6.778;2023-02-01T02:18:04;6.25;;;2.35;;
7783;SDS011;19359;51.402;6.778;2023-02-01T02:21:02;14.00;;;2.03;;
7783;SDS011;19359;51.402;6.778;2023-02-01T02:23:53;13.23;;;2.45;;
7783;SDS011;19359;51.402;6.778;2023-02-01T02:26:55;16.67;;;2.97;;
7783;SDS011;19359;51.402;6.778;2023-02-01T02:29:38;10.10;;;2.03;;
7783;SDS011;19359;51.402;6.778;2023-02-01T02:32:40;11.50;;;2.30;;
7783;SDS011;19359;51.402;6.778;2023-02-01T02:35:26;9.75;;;3.10;;
7783;SDS011;19359;51.402;6.778;2023-02-01T02:37:59;16.67;;;2.80;;
7783;SDS011;19359;51.402;6.778;2023-02-01T02:40:40;12.23;;;3.65;;
7783;SDS011;19359;51.402;6.778;2023-02-01T02:43:15;11.98;;;2.35;;
7783;SDS011;19359;51.402;6.778;2023-02-01T02:46:06;6.38;;;2.22;;
7783;SDS011;19359;51.402;6.778;2023-02-01T02:48:55;6.75;;;2.08;;
7783;SDS011;19359;51.402;6.778;2023-02-01T02:51:34;7.88;;;2.22;;
7783;SDS011;19359;51.402;6.778;2023-02-01T02:54:23;23.17;;;3.35;;
7783;SDS011;19359;51.402;6.778;2023-02-01T02:57:12;6.55;;;3.20;;
7783;SDS011;19359;51.402;6.778;2023-02-01T03:00:00;7.00;;;3.00;;
7783;SDS011;19359;51.402;6.778;2023-02-01T03:02:47;14.45;;;2.97;;
7783;SDS011;19359;51.402;6.778;2023-02-01T03:05:33;12.82;;;2.47;;
7783;SDS011;19359;51.402;6.778;2023-02-01T03:08:08;8.38;;;2.53;;
7783;SDS011;19359;51.402;6.778;2023-02-01T03:10:44;5.55;;;2.45;;
7783;SDS011;19359;51.402;6.778;2023-02-01T03:13:21;23.25;;;3.88;;
7783;SDS011;19359;51.402;6.778;2023-02-01T03:15:57;15.13;;;2.47;;
7783;SDS011;19359;51.402;6.778;2023-02-01T03:18:30;6.50;;;1.73;;
7783;SDS011;19359;51.402;6.778;2023-02-01T03:21:04;8.68;;;2.05;;
7783;SDS011;19359;51.402;6.778;2023-02-01T03:23:35;7.60;;;2.35;;
7783;SDS011;19359;51.402;6.778;2023-02-01T03:26:04;14.88;;;3.15;;
7783;SDS011;19359;51.402;6.778;2023-02-01T03:28:36;13.02;;;3.50;;
7783;SDS011;19359;51.402;6.778;2023-02-01T03:31:06;13.57;;;2.22;;
7783;SDS011;19359;51.402;6.778;2023-02-01T03:33:34;10.52;;;3.33;;
7783;SDS011;19359;51.402;6.778;2023-02-01T03:36:02;16.80;;;3.10;;
7783;SDS011;19359;51.402;6.778;2023-02-01T03:38:38;6.70;;;2.42;;
7783;SDS011;19359;51.402;6.778;2023-02-01T03:41:09;16.13;;;3.85;;
7783;SDS011;19359;51.402;6.778;2023-02-01T03:43:42;14.40;;;3.08;;
7783;SDS011;19359;51.402;6.778;2023-02-01T03:46:17;5.10;;;2.00;;
7783;SDS011;19359;51.402;6.778;2023-02-01T03:48:49;14.82;;;2.83;;
7783;SDS011;19359;51.402;6.778;2023-02-01T03:51:18;13.10;;;2.92;;
7783;SDS011;19359;51.402;6.778;2023-02-01T03:53:48;9.18;;;3.35;;
7783;SDS011;19359;51.402;6.778;2023-02-01T03:56:15;14.73;;;3.67;;
7783;SDS011;19359;51.402;6.778;2023-02-01T03:58:44;11.77;;;3.00;;
7783;SDS011;19359;51.402;6.778;2023-02-01T04:01:23;10.85;;;2.40;;
7783;SDS011;19359;51.402;6.778;2023-02-01T04:03:50;15.93;;;2.28;;
7783;SDS011;19359;51.402;6.778;2023-02-01T04:06:17;11.65;;;3.22;;
7783;SDS011;19359;51.402;6.778;2023-02-01T04:08:44;9.40;;;2.47;;
7783;SDS011;19359;51.402;6.778;2023-02-01T04:11:12;16.88;;;3.13;;
7783;SDS011;19359;51.402;6.778;2023-02-01T04:13:39;12.32;;;2.60;;
7783;SDS011;19359;51.402;6.778;2023-02-01T04:16:05;14.00;;;3.00;;
7783;SDS011;19359;51.402;6.778;2023-02-01T04:18:32;14.23;;;3.95;;
7783;SDS011;19359;51.402;6.778;2023-02-01T04:20:59;14.35;;;4.13;;
7783;SDS011;19359;51.402;6.778;2023-02-01T04:23:26;25.48;;;3.53;;
7783;SDS011;19359;51.402;6.778;2023-02-01T04:25:55;9.10;;;2.65;;
7783;SDS011;19359;51.402;6.778;2023-02-01T04:28:26;8.93;;;1.58;;
7783;SDS011;19359;51.402;6.778;2023-02-01T04:30:53;14.68;;;2.78;;
7783;SDS011;19359;51.402;6.778;2023-02-01T04:33:20;15.68;;;3.40;;
7783;SDS011;19359;51.402;6.778;2023-02-01T04:35:47;10.75;;;3.08;;
7783;SDS011;19359;51.402;6.778;2023-02-01T04:38:13;9.35;;;3.10;;
7783;SDS011;19359;51.402;6.778;2023-02-01T04:40:40;13.63;;;2.50;;
7783;SDS011;19359;51.402;6.778;2023-02-01T04:43:07;9.05;;;2.03;;
7783;SDS011;19359;51.402;6.778;2023-02-01T04:45:35;12.13;;;2.78;;
7783;SDS011;19359;51.402;6.778;2023-02-01T04:48:02;9.88;;;2.20;;
7783;SDS011;19359;51.402;6.778;2023-02-01T04:50:29;23.00;;;4.40;;
7783;SDS011;19359;51.402;6.778;2023-02-01T04:52:56;12.32;;;2.47;;
7783;SDS011;19359;51.402;6.778;2023-02-01T04:55:22;13.48;;;3.35;;
7783;SDS011;19359;51.402;6.778;2023-02-01T04:57:49;15.57;;;3.17;;
7783;SDS011;19359;51.402;6.778;2023-02-01T05:00:16;17.23;;;3.17;;
7783;SDS011;19359;51.402;6.778;2023-02-01T05:02:44;11.18;;;2.22;;
7783;SDS011;19359;51.402;6.778;2023-02-01T05:05:11;14.30;;;2.33;;
7783;SDS011;19359;51.402;6.778;2023-02-01T05:07:38;14.73;;;2.05;;
7783;SDS011;19359;51.402;6.778;2023-02-01T05:10:05;12.60;;;2.53;;
7783;SDS011;19359;51.402;6.778;2023-02-01T05:12:32;13.13;;;2.10;;
7783;SDS011;19359;51.402;6.778;2023-02-01T05:15:17;5.38;;;1.40;;
7783;SDS011;19359;51.402;6.778;2023-02-01T05:17:45;8.00;;;2.75;;
7783;SDS011;19359;51.402;6.778;2023-02-01T05:20:12;18.73;;;2.70;;
7783;SDS011;19359;51.402;6.778;2023-02-01T05:22:38;14.90;;;2.58;;
7783;SDS011;19359;51.402;6.778;2023-02-01T05:25:07;13.95;;;2.40;;
7783;SDS011;19359;51.402;6.778;2023-02-01T05:27:33;17.67;;;3.63;;
7783;SDS011;19359;51.402;6.778;2023-02-01T05:30:00;14.35;;;2.90;;
7783;SDS011;19359;51.402;6.778;2023-02-01T05:32:27;20.92;;;2.50;;
7783;SDS011;19359;51.402;6.778;2023-02-01T05:34:55;12.68;;;1.92;;
7783;SDS011;19359;51.402;6.778;2023-02-01T05:37:22;14.50;;;2.63;;
7783;SDS011;19359;51.402;6.778;2023-02-01T05:39:49;21.73;;;2.42;;
7783;SDS011;19359;51.402;6.778;2023-02-01T05:42:16;21.05;;;2.88;;
7783;SDS011;19359;51.402;6.778;2023-02-01T05:44:42;14.02;;;2.05;;
7783;SDS011;19359;51.402;6.778;2023-02-01T05:47:09;21.10;;;3.47;;
7783;SDS011;19359;51.402;6.778;2023-02-01T05:49:37;10.02;;;2.35;;
7783;SDS011;19359;51.402;6.778;2023-02-01T05:52:05;12.18;;;2.40;;
7783;SDS011;19359;51.402;6.778;2023-02-01T05:54:32;15.07;;;3.10;;
7783;SDS011;19359;51.402;6.778;2023-02-01T05:56:59;19.50;;;2.78;;
7783;SDS011;19359;51.402;6.778;2023-02-01T05:59:26;13.05;;;2.08;;
7783;SDS011;19359;51.402;6.778;2023-02-01T06:01:53;15.70;;;3.17;;
7783;SDS011;19359;51.402;6.778;2023-02-01T06:04:20;19.90;;;3.30;;
7783;SDS011;19359;51.402;6.778;2023-02-01T06:06:46;14.63;;;3.05;;
7783;SDS011;19359;51.402;6.778;2023-02-01T06:09:17;7.90;;;2.33;;
7783;SDS011;19359;51.402;6.778;2023-02-01T06:11:43;14.60;;;3.63;;
7783;SDS011;19359;51.402;6.778;2023-02-01T06:14:10;5.15;;;2.03;;
7783;SDS011;19359;51.402;6.778;2023-02-01T06:16:37;17.73;;;2.95;;
7783;SDS011;19359;51.402;6.778;2023-02-01T06:19:03;11.23;;;3.35;;
7783;SDS011;19359;51.402;6.778;2023-02-01T06:21:30;10.93;;;1.98;;
7783;SDS011;19359;51.402;6.778;2023-02-01T06:23:58;9.80;;;2.70;;
7783;SDS011;19359;51.402;6.778;2023-02-01T06:26:26;12.85;;;2.85;;
7783;SDS011;19359;51.402;6.778;2023-02-01T06:28:54;9.32;;;2.03;;
7783;SDS011;19359;51.402;6.778;2023-02-01T06:31:21;2.92;;;1.75;;
7783;SDS011;19359;51.402;6.778;2023-02-01T06:33:48;16.50;;;2.67;;
7783;SDS011;19359;51.402;6.778;2023-02-01T06:36:15;10.35;;;3.17;;
7783;SDS011;19359;51.402;6.778;2023-02-01T06:38:43;16.88;;;2.40;;
7783;SDS011;19359;51.402;6.778;2023-02-01T06:41:10;11.52;;;2.13;;
7783;SDS011;19359;51.402;6.778;2023-02-01T06:43:38;15.05;;;2.95;;
7783;SDS011;19359;51.402;6.778;2023-02-01T06:46:07;16.08;;;3.05;;
7783;SDS011;19359;51.402;6.778;2023-02-01T06:48:35;18.50;;;2.70;;
7783;SDS011;19359;51.402;6.778;2023-02-01T06:51:02;12.93;;;3.00;;
7783;SDS011;19359;51.402;6.778;2023-02-01T06:53:29;13.63;;;3.67;;
7783;SDS011;19359;51.402;6.778;2023-02-01T06:55:57;11.80;;;2.10;;
7783;SDS011;19359;51.402;6.778;2023-02-01T06:58:27;9.43;;;1.92;;
7783;SDS011;19359;51.402;6.778;2023-02-01T07:00:56;6.88;;;3.03;;
7783;SDS011;19359;51.402;6.778;2023-02-01T07:03:23;8.00;;;2.40;;
7783;SDS011;19359;51.402;6.778;2023-02-01T07:05:50;12.30;;;2.75;;
7783;SDS011;19359;51.402;6.778;2023-02-01T07:08:20;16.52;;;2.42;;
7783;SDS011;19359;51.402;6.778;2023-02-01T07:10:47;9.18;;;2.72;;
7783;SDS011;19359;51.402;6.778;2023-02-01T07:13:14;15.85;;;2.80;;
7783;SDS011;19359;51.402;6.778;2023-02-01T07:15:40;12.65;;;2.28;;
7783;SDS011;19359;51.402;6.778;2023-02-01T07:18:08;14.50;;;3.20;;
7783;SDS011;19359;51.402;6.778;2023-02-01T07:20:35;14.20;;;2.58;;
7783;SDS011;19359;51.402;6.778;2023-02-01T07:23:02;13.95;;;2.47;;
7783;SDS011;19359;51.402;6.778;2023-02-01T07:25:29;8.70;;;1.60;;
7783;SDS011;19359;51.402;6.778;2023-02-01T07:27:55;16.58;;;1.85;;
7783;SDS011;19359;51.402;6.778;2023-02-01T07:30:22;13.82;;;2.80;;
7783;SDS011;19359;51.402;6.778;2023-02-01T07:32:51;19.67;;;4.13;;
7783;SDS011;19359;51.402;6.778;2023-02-01T07:35:19;17.35;;;2.72;;
7783;SDS011;19359;51.402;6.778;2023-02-01T07:37:45;17.02;;;3.50;;
7783;SDS011;19359;51.402;6.778;2023-02-01T07:40:12;11.68;;;1.50;;
7783;SDS011;19359;51.402;6.778;2023-02-01T07:42:39;9.38;;;2.67;;
7783;SDS011;19359;51.402;6.778;2023-02-01T07:45:06;16.77;;;2.90;;
7783;SDS011;19359;51.402;6.778;2023-02-01T07:47:33;3.80;;;2.30;;
7783;SDS011;19359;51.402;6.778;2023-02-01T07:50:00;6.38;;;1.60;;
7783;SDS011;19359;51.402;6.778;2023-02-01T07:52:28;15.02;;;3.10;;
7783;SDS011;19359;51.402;6.778;2023-02-01T07:54:55;12.73;;;2.85;;
7783;SDS011;19359;51.402;6.778;2023-02-01T07:57:22;6.60;;;2.60;;
7783;SDS011;19359;51.402;6.778;2023-02-01T07:59:48;22.20;;;2.72;;
7783;SDS011;19359;51.402;6.778;2023-02-01T08:02:33;10.27;;;2.08;;
7783;SDS011;19359;51.402;6.778;2023-02-01T08:04:59;8.27;;;1.85;;
7783;SDS011;19359;51.402;6.778;2023-02-01T08:07:26;6.38;;;1.58;;
7783;SDS011;19359;51.402;6.778;2023-02-01T08:09:54;18.20;;;2.83;;
7783;SDS011;19359;51.402;6.778;2023-02-01T08:12:21;7.28;;;2.10;;
7783;SDS011;19359;51.402;6.778;2023-02-01T08:14:47;11.68;;;2.22;;
7783;SDS011;19359;51.402;6.778;2023-02-01T08:17:14;23.13;;;2.90;;
7783;SDS011;19359;51.402;6.778;2023-02-01T08:19:41;14.82;;;2.92;;
7783;SDS011;19359;51.402;6.778;2023-02-01T08:22:07;11.65;;;2.92;;
7783;SDS011;19359;51.402;6.778;2023-02-01T08:24:34;7.28;;;2.33;;
7783;SDS011;19359;51.402;6.778;2023-02-01T08:27:05;17.08;;;2.80;;
7783;SDS011;19359;51.402;6.778;2023-02-01T08:29:32;9.02;;;1.90;;
7783;SDS011;19359;51.402;6.778;2023-02-01T08:31:59;13.48;;;3.47;;
7783;SDS011;19359;51.402;6.778;2023-02-01T08:34:25;12.13;;;2.47;;
7783;SDS011;19359;51.402;6.778;2023-02-01T08:36:52;15.68;;;2.85;;
7783;SDS011;19359;51.402;6.778;2023-02-01T08:39:23;10.05;;;1.98;;
7783;SDS011;19359;51.402;6.778;2023-02-01T08:41:50;17.80;;;2.33;;
7783;SDS011;19359;51.402;6.778;2023-02-01T08:44:32;12.30;;;1.80;;
7783;SDS011;19359;51.402;6.778;2023-02-01T08:46:59;13.55;;;1.65;;
7783;SDS011;19359;51.402;6.778;2023-02-01T08:49:25;15.80;;;2.28;;
7783;SDS011;19359;51.402;6.778;2023-02-01T08:51:52;19.63;;;3.08;;
7783;SDS011;19359;51.402;6.778;2023-02-01T08:54:19;10.05;;;2.10;;
7783;SDS011;19359;51.402;6.778;2023-02-01T08:56:47;6.10;;;1.67;;
7783;SDS011;19359;51.402;6.778;2023-02-01T08:59:13;14.77;;;2.05;;
7783;SDS011;19359;51.402;6.778;2023-02-01T09:01:42;10.63;;;2.38;;
7783;SDS011;19359;51.402;6.778;2023-02-01T09:04:08;17.42;;;2.17;;
7783;SDS011;19359;51.402;6.778;2023-02-01T09:06:35;7.85;;;2.22;;
7783;SDS011;19359;51.402;6.778;2023-02-01T09:09:02;18.02;;;3.90;;
7783;SDS011;19359;51.402;6.778;2023-02-01T09:11:29;18.42;;;2.92;;
7783;SDS011;19359;51.402;6.778;2023-02-01T09:13:55;23.52;;;3.55;;
7783;SDS011;19359;51.402;6.778;2023-02-01T09:16:22;16.45;;;2.67;;
7783;SDS011;19359;51.402;6.778;2023-02-01T09:18:50;12.48;;;2.85;;
7783;SDS011;19359;51.402;6.778;2023-02-01T09:21:17;9.50;;;3.55;;
7783;SDS011;19359;51.402;6.778;2023-02-01T09:23:44;11.65;;;3.25;;
7783;SDS011;19359;51.402;6.778;2023-02-01T09:26:13;16.00;;;3.13;;
7783;SDS011;19359;51.402;6.778;2023-02-01T09:28:40;12.20;;;2.35;;
7783;SDS011;19359;51.402;6.778;2023-02-01T09:31:07;12.57;;;3.58;;
7783;SDS011;19359;51.402;6.778;2023-02-01T09:33:34;10.38;;;3.20;;
7783;SDS011;19359;51.402;6.778;2023-02-01T09:36:03;16.00;;;3.03;;
7783;SDS011;19359;51.402;6.778;2023-02-01T09:38:31;8.43;;;2.55;;
7783;SDS011;19359;51.402;6.778;2023-02-01T09:40:58;13.80;;;2.30;;
7783;SDS011;19359;51.402;6.778;2023-02-01T09:43:29;13.73;;;2.88;;
7783;SDS011;19359;51.402;6.778;2023-02-01T09:46:12;14.02;;;2.28;;
7783;SDS011;19359;51.402;6.778;2023-02-01T09:48:47;18.77;;;2.33;;
7783;SDS011;19359;51.402;6.778;2023-02-01T09:51:18;16.58;;;3.05;;
7783;SDS011;19359;51.402;6.778;2023-02-01T09:53:52;14.60;;;2.67;;
7783;SDS011;19359;51.402;6.778;2023-02-01T09:56:26;15.25;;;2.90;;
7783;SDS011;19359;51.402;6.778;2023-02-01T09:59:01;11.23;;;2.15;;
7783;SDS011;19359;51.402;6.778;2023-02-01T10:01:35;13.73;;;2.78;;
7783;SDS011;19359;51.402;6.778;2023-02-01T10:04:04;18.63;;;2.75;;
7783;SDS011;19359;51.402;6.778;2023-02-01T10:06:43;6.68;;;2.25;;
7783;SDS011;19359;51.402;6.778;2023-02-01T10:09:31;9.55;;;1.73;;
7783;SDS011;19359;51.402;6.778;2023-02-01T10:12:23;14.65;;;3.33;;
7783;SDS011;19359;51.402;6.778;2023-02-01T10:15:02;12.90;;;3.20;;
7783;SDS011;19359;51.402;6.778;2023-02-01T10:17:46;22.90;;;3.22;;
7783;SDS011;19359;51.402;6.778;2023-02-01T10:20:22;9.93;;;2.38;;
7783;SDS011;19359;51.402;6.778;2023-02-01T10:22:57;9.13;;;2.78;;
7783;SDS011;19359;51.402;6.778;2023-02-01T10:25:32;15.23;;;3.20;;
7783;SDS011;19359;51.402;6.778;2023-02-01T10:28:03;10.55;;;2.90;;
7783;SDS011;19359;51.402;6.778;2023-02-01T10:30:31;12.27;;;2.97;;
7783;SDS011;19359;51.402;6.778;2023-02-01T10:33:12;13.40;;;3.03;;
7783;SDS011;19359;51.402;6.778;2023-02-01T10:35:41;10.88;;;2.47;;
7783;SDS011;19359;51.402;6.778;2023-02-01T10:38:16;6.57;;;2.53;;
7783;SDS011;19359;51.402;6.778;2023-02-01T10:40:50;17.67;;;2.40;;
7783;SDS011;19359;51.402;6.778;2023-02-01T10:43:18;9.15;;;2.28;;
7783;SDS011;19359;51.402;6.778;2023-02-01T10:45:46;14.45;;;2.22;;
7783;SDS011;19359;51.402;6.778;2023-02-01T10:48:12;19.48;;;3.33;;
7783;SDS011;19359;51.402;6.778;2023-02-01T10:50:41;11.38;;;1.83;;
7783;SDS011;19359;51.402;6.778;2023-02-01T10:53:17;13.95;;;2.35;;
7783;SDS011;19359;51.402;6.778;2023-02-01T10:55:48;10.77;;;2.92;;
7783;SDS011;19359;51.402;6.778;2023-02-01T10:58:16;13.52;;;2.72;;
7783;SDS011;19359;51.402;6.778;2023-02-01T11:00:46;14.15;;;2.65;;
7783;SDS011;19359;51.402;6.778;2023-02-01T11:03:21;16.67;;;2.97;;
7783;SDS011;19359;51.402;6.778;2023-02-01T11:05:56;8.60;;;2.42;;
7783;SDS011;19359;51.402;6.778;2023-02-01T11:08:24;7.43;;;2.08;;
7783;SDS011;19359;51.402;6.778;2023-02-01T11:10:56;7.38;;;2.38;;
7783;SDS011;19359;51.402;6.778;2023-02-01T11:13:27;14.38;;;3.17;;
7783;SDS011;19359;51.402;6.778;2023-02-01T11:15:56;15.05;;;2.75;;
7783;SDS011;19359;51.402;6.778;2023-02-01T11:18:25;14.68;;;3.97;;
7783;SDS011;19359;51.402;6.778;2023-02-01T11:20:53;8.77;;;2.45;;
7783;SDS011;19359;51.402;6.778;2023-02-01T11:23:21;9.80;;;1.98;;
7783;SDS011;19359;51.402;6.778;2023-02-01T11:25:53;8.75;;;2.40;;
7783;SDS011;19359;51.402;6.778;2023-02-01T11:28:23;6.28;;;2.28;;
7783;SDS011;19359;51.402;6.778;2023-02-01T11:30:53;16.23;;;2.83;;
7783;SDS011;19359;51.402;6.778;2023-02-01T11:33:23;11.15;;;1.60;;
7783;SDS011;19359;51.402;6.778;2023-02-01T11:35:54;7.75;;;2.55;;
7783;SDS011;19359;51.402;6.778;2023-02-01T11:38:26;22.67;;;2.90;;
7783;SDS011;19359;51.402;6.778;2023-02-01T11:40:55;14.00;;;2.53;;
7783;SDS011;19359;51.402;6.778;2023-02-01T11:43:37;11.85;;;3.30;;
7783;SDS011;19359;51.402;6.778;2023-02-01T11:46:08;14.98;;;3.75;;
7783;SDS011;19359;51.402;6.778;2023-02-01T11:48:47;14.05;;;3.00;;
7783;SDS011;19359;51.402;6.778;2023-02-01T11:51:19;6.63;;;2.58;;
7783;SDS011;19359;51.402;6.778;2023-02-01T11:54:02;6.65;;;2.88;;
7783;SDS011;19359;51.402;6.778;2023-02-01T11:56:40;11.60;;;2.35;;
7783;SDS011;19359;51.402;6.778;2023-02-01T11:59:17;14.18;;;3.22;;
7783;SDS011;19359;51.402;6.778;2023-02-01T12:01:58;6.72;;;2.47;;
7783;SDS011;19359;51.402;6.778;2023-02-01T12:04:47;10.15;;;2.75;;
7783;SDS011;19359;51.402;6.778;2023-02-01T12:07:32;15.73;;;3.17;;
7783;SDS011;19359;51.402;6.778;2023-02-01T12:10:19;16.80;;;2.60;;
7783;SDS011;19359;51.402;6.778;2023-02-01T12:12:57;4.28;;;1.80;;
7783;SDS011;19359;51.402;6.778;2023-02-01T12:15:36;5.22;;;1.95;;
7783;SDS011;19359;51.402;6.778;2023-02-01T12:18:24;12.38;;;3.22;;
7783;SDS011;19359;51.402;6.778;2023-02-01T12:21:04;18.17;;;2.85;;
7783;SDS011;19359;51.402;6.778;2023-02-01T12:23:44;9.70;;;2.10;;
7783;SDS011;19359;51.402;6.778;2023-02-01T12:26:33;8.65;;;2.67;;
7783;SDS011;19359;51.402;6.778;2023-02-01T12:29:16;9.48;;;2.33;;
7783;SDS011;19359;51.402;6.778;2023-02-01T12:32:11;14.75;;;2.85;;
7783;SDS011;19359;51.402;6.778;2023-02-01T12:34:50;10.13;;;2.35;;
7783;SDS011;19359;51.402;6.778;2023-02-01T12:37:32;21.13;;;3.05;;
7783;SDS011;19359;51.402;6.778;2023-02-01T12:40:15;12.40;;;2.70;;
7783;SDS011;19359;51.402;6.778;2023-02-01T12:43:04;7.40;;;1.85;;
7783;SDS011;19359;51.402;6.778;2023-02-01T12:45:36;6.85;;;2.30;;
7783;SDS011;19359;51.402;6.778;2023-02-01T12:48:13;17.67;;;2.28;;
7783;SDS011;19359;51.402;6.778;2023-02-01T12:50:52;8.02;;;1.65;;
7783;SDS011;19359;51.402;6.778;2023-02-01T12:53:22;10.50;;;1.05;;
7783;SDS011;19359;51.402;6.778;2023-02-01T12:55:53;11.25;;;1.67;;
7783;SDS011;19359;51.402;6.778;2023-02-01T12:58:24;2.50;;;0.90;;
7783;SDS011;19359;51.402;6.778;2023-02-01T13:00:57;15.98;;;1.30;;
7783;SDS011;19359;51.402;6.778;2023-02-01T13:03:29;8.20;;;1.92;;
7783;SDS011;19359;51.402;6.778;2023-02-01T13:06:04;7.50;;;1.15;;
7783;SDS011;19359;51.402;6.778;2023-02-01T13:08:38;4.57;;;1.27;;
7783;SDS011;19359;51.402;6.778;2023-02-01T13:11:10;12.65;;;2.50;;
7783;SDS011;19359;51.402;6.778;2023-02-01T13:13:46;8.02;;;0.93;;
7783;SDS011;19359;51.402;6.778;2023-02-01T13:16:25;18.75;;;2.15;;
7783;SDS011;19359;51.402;6.778;2023-02-01T13:18:59;14.07;;;1.73;;
7783;SDS011;19359;51.402;6.778;2023-02-01T13:21:31;7.57;;;1.50;;
7783;SDS011;19359;51.402;6.778;2023-02-01T13:24:01;4.18;;;1.30;;
7783;SDS011;19359;51.402;6.778;2023-02-01T13:26:28;11.20;;;1.27;;
7783;SDS011;19359;51.402;6.778;2023-02-01T13:28:57;9.10;;;1.63;;
7783;SDS011;19359;51.402;6.778;2023-02-01T13:31:40;12.00;;;1.27;;
7783;SDS011;19359;51.402;6.778;2023-02-01T13:37:24;9.35;;;1.05;;
7783;SDS011;19359;51.402;6.778;2023-02-01T13:40:02;11.88;;;2.30;;
7783;SDS011;19359;51.402;6.778;2023-02-01T13:42:47;4.80;;;0.80;;
7783;SDS011;19359;51.402;6.778;2023-02-01T13:45:19;4.97;;;1.52;;
7783;SDS011;19359;51.402;6.778;2023-02-01T13:47:48;6.25;;;1.42;;
7783;SDS011;19359;51.402;6.778;2023-02-01T13:50:20;5.47;;;1.10;;
7783;SDS011;19359;51.402;6.778;2023-02-01T13:52:51;14.80;;;1.40;;
7783;SDS011;19359;51.402;6.778;2023-02-01T13:55:26;15.48;;;1.20;;
7783;SDS011;19359;51.402;6.778;2023-02-01T13:58:06;6.45;;;1.40;;
7783;SDS011;19359;51.402;6.778;2023-02-01T14:00:42;13.50;;;2.15;;
7783;SDS011;19359;51.402;6.778;2023-02-01T14:03:16;6.35;;;2.03;;
7783;SDS011;19359;51.402;6.778;2023-02-01T14:05:55;8.90;;;1.75;;
7783;SDS011;19359;51.402;6.778;2023-02-01T14:08:36;8.65;;;1.60;;
7783;SDS011;19359;51.402;6.778;2023-02-01T14:11:05;6.75;;;1.13;;
7783;SDS011;19359;51.402;6.778;2023-02-01T14:13:32;7.50;;;1.65;;
7783;SDS011;19359;51.402;6.778;2023-02-01T14:16:11;5.57;;;1.25;;
7783;SDS011;19359;51.402;6.778;2023-02-01T14:18:54;9.50;;;1.63;;
7783;SDS011;19359;51.402;6.778;2023-02-01T14:21:27;8.77;;;1.13;;
7783;SDS011;19359;51.402;6.778;2023-02-01T14:23:58;4.43;;;1.38;;
7783;SDS011;19359;51.402;6.778;2023-02-01T14:26:27;9.32;;;1.55;;
7783;SDS011;19359;51.402;6.778;2023-02-01T14:31:54;12.10;;;1.98;;
7783;SDS011;19359;51.402;6.778;2023-02-01T14:37:23;8.20;;;1.25;;
7783;SDS011;19359;51.402;6.778;2023-02-01T14:39:54;6.72;;;1.35;;
7783;SDS011;19359;51.402;6.778;2023-02-01T14:42:26;4.80;;;1.10;;
7783;SDS011;19359;51.402;6.778;2023-02-01T14:44:56;13.75;;;2.22;;
7783;SDS011;19359;51.402;6.778;2023-02-01T14:51:01;7.40;;;1.45;;
7783;SDS011;19359;51.402;6.778;2023-02-01T14:53:30;8.75;;;1.42;;
7783;SDS011;19359;51.402;6.778;2023-02-01T14:56:04;12.23;;;1.95;;
7783;SDS011;19359;51.402;6.778;2023-02-01T14:58:35;8.90;;;1.30;;
7783;SDS011;19359;51.402;6.778;2023-02-01T15:01:13;3.72;;;1.10;;
7783;SDS011;19359;51.402;6.778;2023-02-01T15:03:46;10.43;;;2.22;;
7783;SDS011;19359;51.402;6.778;2023-02-01T15:06:27;14.48;;;1.83;;
7783;SDS011;19359;51.402;6.778;2023-02-01T15:08:58;16.27;;;2.65;;
7783;SDS011;19359;51.402;6.778;2023-02-01T15:11:27;8.68;;;1.65;;
7783;SDS011;19359;51.402;6.778;2023-02-01T15:13:54;12.50;;;1.85;;
7783;SDS011;19359;51.402;6.778;2023-02-01T15:16:22;12.02;;;1.50;;
7783;SDS011;19359;51.402;6.778;2023-02-01T15:18:50;5.63;;;0.88;;
7783;SDS011;19359;51.402;6.778;2023-02-01T15:21:37;14.25;;;3.25;;
7783;SDS011;19359;51.402;6.778;2023-02-01T15:24:10;12.93;;;1.33;;
7783;SDS011;19359;51.402;6.778;2023-02-01T15:26:37;13.48;;;2.42;;
7783;SDS011;19359;51.402;6.778;2023-02-01T15:29:04;17.05;;;2.05;;
7783;SDS011;19359;51.402;6.778;2023-02-01T15:31:32;8.50;;;2.00;;